Time;durP1;ratioP1;P1;durP2;ratioP2;P2;SDS_P1;SDS_P2;PMS_P1;PMS_P2;Temp;Humidity;BMP_temperature;BMP_pressure;BME280_temperature;BME280_humidity;BME280_pressure;Samples;Min_cycle;Max_cycle;Signal;HPM_P1;HPM_P2
2023/05/26 00:02:19;;;;;;;12.03;5.90;;;14.60;92.10;;;;;;5094400;28;20784;-51
2023/05/26 00:04:45;;;;;;;15.70;6.00;;;14.40;91.90;;;;;;5073294;28;20437;-51
2023/05/26 00:07:12;;;;;;;16.73;5.33;;;14.70;92.30;;;;;;5074246;28;20429;-51
2023/05/26 00:09:39;;;;;;;19.07;5.47;;;14.30;92.20;;;;;;5074356;28;20976;-51
2023/05/26 00:12:06;;;;;;;17.63;6.37;;;14.30;92.30;;;;;;5074452;28;20529;-50
2023/05/26 00:14:33;;;;;;;17.20;6.03;;;14.60;92.60;;;;;;5074351;28;20827;-49
2023/05/26 00:17:02;;;;;;;21.20;7.00;;;14.10;92.50;;;;;;5074880;28;20422;-51
2023/05/26 00:19:31;;;;;;;18.50;7.03;;;14.70;92.90;;;;;;5072816;28;20487;-52
2023/05/26 00:21:58;;;;;;;19.93;6.13;;;14.50;93.00;;;;;;5074512;28;20438;-51
2023/05/26 00:24:25;;;;;;;19.63;6.20;;;14.20;93.00;;;;;;5056363;28;20988;-51
2023/05/26 00:26:51;;;;;;;15.53;6.17;;;14.10;93.10;;;;;;5074362;28;20429;-50
2023/05/26 00:29:18;;;;;;;16.10;6.10;;;14.30;93.30;;;;;;5055761;28;20449;-52
2023/05/26 00:31:44;;;;;;;20.10;6.80;;;14.10;93.30;;;;;;5056139;28;20449;-51
2023/05/26 00:34:11;;;;;;;16.90;6.77;;;14.10;93.40;;;;;;5072916;28;20988;-51
2023/05/26 00:36:39;;;;;;;11.90;5.30;;;14.40;93.90;;;;;;5074137;28;20780;-50
2023/05/26 00:39:06;;;;;;;21.43;7.60;;;14.50;93.90;;;;;;5055885;28;20469;-50
2023/05/26 00:41:32;;;;;;;14.60;5.90;;;14.00;93.80;;;;;;5056462;28;20455;-51
2023/05/26 00:43:59;;;;;;;17.40;5.43;;;14.50;94.30;;;;;;5056184;28;20477;-51
2023/05/26 00:46:26;;;;;;;15.50;5.73;;;14.10;94.20;;;;;;5074233;28;20473;-52
2023/05/26 00:48:52;;;;;;;15.07;6.30;;;14.10;94.20;;;;;;5074025;28;20411;-52
2023/05/26 00:51:20;;;;;;;19.23;6.00;;;13.80;94.20;;;;;;5056157;28;20531;-51
2023/05/26 00:53:48;;;;;;;13.97;5.40;;;13.80;94.20;;;;;;5073601;28;20981;-51
2023/05/26 00:56:16;;;;;;;20.63;7.67;;;13.90;94.40;;;;;;5055801;28;20817;-51
2023/05/26 00:58:43;;;;;;;24.00;7.57;;;13.70;94.50;;;;;;5073696;28;20533;-51
2023/05/26 01:01:12;;;;;;;15.53;6.70;;;14.20;94.90;;;;;;5073658;28;20433;-51
2023/05/26 01:03:39;;;;;;;13.50;6.70;;;13.30;94.50;;;;;;5073623;28;20475;-51
2023/05/26 01:06:06;;;;;;;14.47;5.93;;;14.30;95.20;;;;;;5073700;28;21210;-51
2023/05/26 01:08:33;;;;;;;15.40;6.40;;;14.20;95.30;;;;;;5071841;28;20460;-52
2023/05/26 01:11:05;;;;;;;17.73;6.97;;;13.60;95.10;;;;;;5055564;28;20435;-51
2023/05/26 01:13:46;;;;;;;18.67;6.27;;;14.10;95.50;;;;;;5073517;28;20636;-51
2023/05/26 01:16:13;;;;;;;19.70;6.80;;;14.10;95.70;;;;;;5073395;28;20411;-51
2023/05/26 01:18:46;;;;;;;14.37;6.40;;;13.40;95.20;;;;;;5073148;28;20953;-51
2023/05/26 01:21:13;;;;;;;22.90;7.53;;;13.70;95.60;;;;;;5055349;28;20449;-51
2023/05/26 01:24:01;;;;;;;29.63;6.80;;;12.90;95.20;;;;;;5071841;28;20465;-51
2023/05/26 01:26:38;;;;;;;15.87;6.10;;;13.50;95.60;;;;;;5055280;28;20451;-51
2023/05/26 01:29:11;;;;;;;22.93;8.03;;;13.50;95.70;;;;;;5072842;28;20478;-50
2023/05/26 01:31:39;;;;;;;18.13;7.43;;;13.60;96.00;;;;;;5054757;28;20536;-51
2023/05/26 01:34:06;;;;;;;16.67;6.30;;;13.50;95.90;;;;;;5055171;28;21004;-52
2023/05/26 01:36:33;;;;;;;20.47;6.37;;;13.80;96.20;;;;;;5071810;28;20437;-49
2023/05/26 01:39:00;;;;;;;17.50;6.53;;;13.90;96.40;;;;;;5055002;28;20482;-49
2023/05/26 01:41:34;;;;;;;16.30;7.10;;;13.60;96.40;;;;;;5055053;28;20419;-50
2023/05/26 01:44:03;;;;;;;16.83;6.57;;;13.30;96.20;;;;;;5072926;28;20460;-50
2023/05/26 01:46:38;;;;;;;18.00;6.27;;;13.30;96.30;;;;;;5072977;28;20491;-49
2023/05/26 01:49:08;;;;;;;16.30;6.47;;;13.30;96.40;;;;;;5072874;28;20849;-50
2023/05/26 01:51:35;;;;;;;19.33;6.23;;;13.30;96.50;;;;;;5072780;28;20427;-51
2023/05/26 01:54:05;;;;;;;18.53;5.50;;;12.90;96.30;;;;;;5072548;28;20476;-50
2023/05/26 01:56:34;;;;;;;22.93;6.90;;;13.30;96.50;;;;;;5054756;28;20449;-51
2023/05/26 01:59:02;;;;;;;19.07;6.70;;;12.90;96.40;;;;;;5072357;28;20439;-50
2023/05/26 02:01:33;;;;;;;16.90;6.77;;;13.60;96.90;;;;;;5054571;28;20533;-51
2023/05/26 02:04:00;;;;;;;15.83;5.90;;;13.30;96.80;;;;;;5072580;28;20448;-51
2023/05/26 02:06:27;;;;;;;21.23;6.90;;;13.10;96.80;;;;;;5072547;28;20488;-51
2023/05/26 02:08:54;;;;;;;20.00;6.83;;;13.20;96.90;;;;;;5072087;28;20508;-49
2023/05/26 02:11:21;;;;;;;15.70;6.33;;;13.10;97.00;;;;;;5072503;28;20434;-51
2023/05/26 02:13:48;;;;;;;16.90;6.00;;;13.40;97.20;;;;;;5071108;28;20971;-51
2023/05/26 02:16:15;;;;;;;18.23;7.10;;;13.10;97.20;;;;;;5054468;28;20973;-51
2023/05/26 02:18:45;;;;;;;17.80;6.40;;;12.80;97.30;;;;;;5054033;28;20451;-50
2023/05/26 02:21:12;;;;;;;21.97;6.27;;;13.10;97.50;;;;;;5054184;28;20484;-49
2023/05/26 02:23:39;;;;;;;19.50;6.67;;;13.00;97.60;;;;;;5071981;28;20485;-50
2023/05/26 02:26:06;;;;;;;21.83;7.77;;;13.00;97.70;;;;;;5054221;28;20450;-50
2023/05/26 02:28:33;;;;;;;22.43;6.87;;;13.10;97.90;;;;;;5053755;28;20520;-50
2023/05/26 02:31:00;;;;;;;21.23;7.60;;;13.10;98.00;;;;;;5054246;28;20850;-50
2023/05/26 02:33:26;;;;;;;15.80;6.83;;;12.80;98.00;;;;;;5053994;28;20559;-49
2023/05/26 02:35:54;;;;;;;22.33;7.40;;;13.40;98.30;;;;;;5071778;28;20971;-50
2023/05/26 02:38:22;;;;;;;18.57;7.00;;;12.90;98.10;;;;;;5053824;28;20491;-50
2023/05/26 02:40:49;;;;;;;14.33;6.20;;;12.60;98.00;;;;;;5053888;28;20454;-50
2023/05/26 02:43:17;;;;;;;20.77;6.50;;;13.20;98.50;;;;;;5071056;28;20866;-51
2023/05/26 02:45:43;;;;;;;18.90;6.90;;;13.10;98.60;;;;;;5072289;28;20441;-50
2023/05/26 02:48:10;;;;;;;15.53;6.07;;;12.90;98.70;;;;;;5053619;28;20455;-51
2023/05/26 02:50:37;;;;;;;19.47;7.37;;;12.60;98.50;;;;;;5071813;28;20436;-49
2023/05/26 02:53:05;;;;;;;16.07;7.43;;;13.40;99.10;;;;;;5053738;28;20506;-51
2023/05/26 02:55:31;;;;;;;18.97;7.47;;;12.90;99.00;;;;;;5072319;28;20439;-51
2023/05/26 02:57:58;;;;;;;15.23;6.53;;;12.80;99.10;;;;;;5071697;28;20806;-51
2023/05/26 03:00:25;;;;;;;20.37;7.10;;;13.20;99.30;;;;;;5071400;28;20494;-50
2023/05/26 03:02:51;;;;;;;14.97;5.90;;;13.20;99.30;;;;;;5053651;28;20534;-49
2023/05/26 03:05:18;;;;;;;18.23;6.73;;;13.00;99.30;;;;;;5053595;28;20522;-51
2023/05/26 03:07:46;;;;;;;22.80;7.07;;;13.30;99.50;;;;;;5053869;28;20463;-51
2023/05/26 03:10:14;;;;;;;16.80;7.63;;;12.60;99.30;;;;;;5071440;28;20422;-51
2023/05/26 03:12:41;;;;;;;19.80;6.63;;;12.90;99.40;;;;;;5053867;28;20480;-50
2023/05/26 03:15:08;;;;;;;24.77;8.30;;;12.50;99.20;;;;;;5071561;28;20431;-50
2023/05/26 03:17:35;;;;;;;29.80;9.70;;;12.80;99.50;;;;;;5053254;28;20847;-50
2023/05/26 03:20:02;;;;;;;16.70;7.03;;;12.30;99.20;;;;;;5053137;28;20499;-51
2023/05/26 03:22:28;;;;;;;26.63;7.57;;;12.80;99.50;;;;;;5053541;28;20459;-51
2023/05/26 03:24:55;;;;;;;22.93;8.20;;;12.90;99.50;;;;;;5053530;28;20485;-51
2023/05/26 03:27:28;;;;;;;18.13;6.17;;;12.70;99.30;;;;;;5053643;28;20951;-51
2023/05/26 03:29:55;;;;;;;18.37;6.87;;;12.70;99.40;;;;;;5071008;28;20932;-51
2023/05/26 03:32:22;;;;;;;16.97;6.77;;;12.90;99.50;;;;;;5053178;28;20807;-50
2023/05/26 03:34:48;;;;;;;25.30;7.63;;;12.60;99.30;;;;;;5051823;28;20814;-51
2023/05/26 03:37:15;;;;;;;19.30;7.20;;;13.20;99.70;;;;;;5053310;28;20444;-51
2023/05/26 03:39:43;;;;;;;19.70;7.47;;;12.70;99.40;;;;;;5053042;28;20476;-51
2023/05/26 03:42:11;;;;;;;20.07;7.00;;;13.20;99.80;;;;;;5053457;28;20918;-50
2023/05/26 03:44:40;;;;;;;19.60;6.33;;;13.00;99.60;;;;;;5053260;28;20833;-51
2023/05/26 03:47:09;;;;;;;18.90;7.80;;;13.20;99.80;;;;;;5053410;28;20445;-52
2023/05/26 03:49:35;;;;;;;23.10;7.13;;;12.80;99.60;;;;;;5071015;28;20443;-51
2023/05/26 03:52:02;;;;;;;20.17;7.70;;;13.30;99.90;;;;;;5052037;28;20841;-51
2023/05/26 03:54:30;;;;;;;13.70;6.30;;;12.70;99.60;;;;;;5072822;28;20483;-51
2023/05/26 03:56:56;;;;;;;25.67;7.00;;;13.00;99.80;;;;;;5074909;28;20459;-50
2023/05/26 03:59:23;;;;;;;21.57;7.53;;;12.90;99.60;;;;;;5056406;28;20542;-51
2023/05/26 04:01:51;;;;;;;18.57;8.63;;;13.40;99.80;;;;;;5074722;28;20811;-51
2023/05/26 04:04:17;;;;;;;27.13;7.90;;;13.20;99.60;;;;;;5074794;28;20467;-52
2023/05/26 04:06:45;;;;;;;24.60;7.60;;;12.80;99.30;;;;;;5056861;28;20558;-51
2023/05/26 04:09:12;;;;;;;21.27;7.63;;;12.90;99.30;;;;;;5074328;28;20805;-51
2023/05/26 04:11:39;;;;;;;20.83;7.17;;;12.80;99.20;;;;;;5056357;28;20444;-51
2023/05/26 04:14:06;;;;;;;22.43;8.00;;;13.20;99.20;;;;;;5056712;28;20571;-51
2023/05/26 04:16:33;;;;;;;16.43;7.43;;;13.40;99.20;;;;;;5074899;28;20419;-51
2023/05/26 04:19:01;;;;;;;18.60;8.20;;;13.30;99.10;;;;;;5056294;28;20496;-51
2023/05/26 04:21:30;;;;;;;21.27;8.00;;;13.10;99.00;;;;;;5056305;28;20540;-51
2023/05/26 04:23:57;;;;;;;20.00;7.27;;;13.80;99.10;;;;;;5074269;28;20454;-51
2023/05/26 04:26:32;;;;;;;19.90;7.20;;;13.40;98.70;;;;;;5056258;28;20453;-51
2023/05/26 04:29:15;;;;;;;16.97;7.90;;;13.90;98.80;;;;;;5055942;28;20822;-51
2023/05/26 04:31:52;;;;;;;18.43;7.23;;;14.00;98.70;;;;;;5056154;28;20480;-51
2023/05/26 04:34:44;;;;;;;23.53;7.90;;;13.80;98.50;;;;;;5056310;28;20816;-51
2023/05/26 04:37:16;;;;;;;18.30;6.67;;;13.70;98.30;;;;;;5074136;28;20424;-52
2023/05/26 04:39:42;;;;;;;21.23;6.57;;;13.90;98.20;;;;;;5073639;28;20437;-51
2023/05/26 04:42:09;;;;;;;16.90;6.80;;;13.60;97.90;;;;;;5055950;28;20992;-51
2023/05/26 04:44:38;;;;;;;19.83;6.27;;;13.60;97.90;;;;;;5055964;28;20455;-50
2023/05/26 04:47:08;;;;;;;15.73;6.53;;;13.50;97.70;;;;;;5056055;28;20853;-50
2023/05/26 04:49:35;;;;;;;22.43;7.93;;;13.80;97.80;;;;;;5073615;28;20527;-50
2023/05/26 04:52:03;;;;;;;18.53;6.50;;;14.00;97.80;;;;;;5055525;28;20993;-50
2023/05/26 04:54:30;;;;;;;18.30;6.20;;;14.00;97.70;;;;;;5055654;28;20508;-50
2023/05/26 04:56:57;;;;;;;16.37;6.07;;;14.00;97.50;;;;;;5055806;28;20437;-51
2023/05/26 04:59:33;;;;;;;19.03;6.30;;;13.80;97.30;;;;;;5055573;28;20540;-50
2023/05/26 05:02:00;;;;;;;18.13;6.63;;;13.80;97.30;;;;;;5073395;28;20476;-51
2023/05/26 05:04:51;;;;;;;21.53;6.80;;;14.00;97.30;;;;;;5054199;28;20475;-50
2023/05/26 05:07:19;;;;;;;21.97;6.83;;;13.90;97.20;;;;;;5055208;28;20507;-51
2023/05/26 05:09:46;;;;;;;20.67;6.97;;;14.50;97.40;;;;;;5073292;28;20432;-51
2023/05/26 05:12:12;;;;;;;24.73;6.57;;;14.30;97.20;;;;;;5055288;28;21051;-51
2023/05/26 05:14:40;;;;;;;18.90;7.60;;;14.80;97.30;;;;;;5055441;28;20543;-50
2023/05/26 05:17:07;;;;;;;16.37;6.77;;;14.50;96.90;;;;;;5055259;28;20449;-51
2023/05/26 05:19:33;;;;;;;18.63;6.20;;;14.40;96.70;;;;;;5054961;28;20453;-51
2023/05/26 05:22:00;;;;;;;20.70;6.63;;;14.90;96.80;;;;;;5072954;28;20484;-51
2023/05/26 05:24:28;;;;;;;19.17;6.23;;;14.40;96.30;;;;;;5054945;28;20832;-50
2023/05/26 05:26:55;;;;;;;18.70;7.10;;;15.20;96.70;;;;;;5073058;28;20444;-52
2023/05/26 05:29:24;;;;;;;18.07;6.07;;;15.10;96.60;;;;;;5054664;28;20485;-51
2023/05/26 05:31:53;;;;;;;22.53;7.23;;;15.00;96.40;;;;;;5054781;28;20438;-52
2023/05/26 05:34:21;;;;;;;20.60;6.70;;;15.30;96.40;;;;;;5054846;28;20573;-51
2023/05/26 05:36:48;;;;;;;17.93;6.23;;;15.00;96.10;;;;;;5054805;28;20449;-50
2023/05/26 05:39:15;;;;;;;17.83;6.50;;;15.00;96.00;;;;;;5053560;28;20549;-51
2023/05/26 05:41:43;;;;;;;19.80;7.53;;;15.30;96.20;;;;;;5054173;28;20539;-50
2023/05/26 05:44:09;;;;;;;15.70;6.13;;;15.40;96.20;;;;;;5053825;28;20477;-52
2023/05/26 05:46:36;;;;;;;15.37;6.43;;;15.20;96.10;;;;;;5071554;28;20457;-52
2023/05/26 05:49:13;;;;;;;23.37;7.20;;;15.40;96.20;;;;;;5054017;28;20488;-52
2023/05/26 05:51:43;;;;;;;14.20;6.23;;;15.50;96.10;;;;;;5054573;28;20449;-51
2023/05/26 05:54:10;;;;;;;15.80;6.50;;;15.00;95.90;;;;;;5096975;22;20572;-47
2023/05/26 05:56:37;;;;;;;18.10;5.97;;;14.90;96.00;;;;;;5054581;28;20422;-48
2023/05/26 05:59:07;;;;;;;17.13;7.17;;;15.10;96.10;;;;;;5053627;28;20828;-47
2023/05/26 06:01:34;;;;;;;18.03;6.20;;;15.10;96.10;;;;;;5054367;28;20555;-48
2023/05/26 06:04:00;;;;;;;19.00;6.43;;;15.20;96.20;;;;;;5054419;28;20977;-46
2023/05/26 06:06:27;;;;;;;18.93;5.80;;;15.20;96.20;;;;;;5054472;28;20503;-48
2023/05/26 06:08:54;;;;;;;18.37;5.80;;;15.30;96.20;;;;;;5072327;28;20766;-48
2023/05/26 06:11:21;;;;;;;18.70;6.50;;;15.40;96.10;;;;;;5054212;28;20442;-47
2023/05/26 06:13:48;;;;;;;18.80;6.63;;;15.00;95.80;;;;;;5054300;28;20546;-47
2023/05/26 06:16:16;;;;;;;20.50;6.10;;;15.30;96.00;;;;;;5054226;28;20489;-47
2023/05/26 06:18:42;;;;;;;20.50;6.30;;;15.40;95.90;;;;;;5053877;28;20456;-47
2023/05/26 06:21:09;;;;;;;17.87;5.60;;;15.40;95.80;;;;;;5054074;28;20469;-46
2023/05/26 06:23:37;;;;;;;17.17;5.90;;;15.50;95.50;;;;;;5053905;28;20487;-47
2023/05/26 06:26:03;;;;;;;19.30;6.30;;;15.40;95.30;;;;;;5054031;28;20999;-47
2023/05/26 06:28:30;;;;;;;24.63;6.27;;;15.70;95.40;;;;;;5053133;28;20441;-47
2023/05/26 06:30:57;;;;;;;20.67;5.73;;;15.90;95.30;;;;;;5053927;28;20434;-47
2023/05/26 06:33:37;;;;;;;24.20;7.10;;;16.00;94.80;;;;;;5053891;28;20456;-47
2023/05/26 06:36:04;;;;;;;15.17;5.53;;;15.90;94.60;;;;;;5053419;28;20980;-47
2023/05/26 06:38:30;;;;;;;18.80;6.37;;;16.30;94.70;;;;;;5053425;28;20445;-47
2023/05/26 06:41:02;;;;;;;17.77;6.00;;;16.30;94.40;;;;;;5053816;28;20615;-47
2023/05/26 06:43:28;;;;;;;16.40;6.00;;;16.30;94.20;;;;;;5054194;28;20464;-47
2023/05/26 06:45:55;;;;;;;20.07;6.00;;;16.10;94.00;;;;;;5054417;28;20450;-46
2023/05/26 06:48:23;;;;;;;15.73;4.53;;;16.30;94.00;;;;;;5053444;28;20509;-47
2023/05/26 06:51:07;;;;;;;19.33;6.47;;;16.30;93.90;;;;;;5053755;28;20450;-47
2023/05/26 06:53:37;;;;;;;16.00;5.60;;;16.20;93.90;;;;;;5053036;28;20516;-55
2023/05/26 06:56:03;;;;;;;19.70;6.17;;;16.40;94.00;;;;;;5052624;28;20500;-48
2023/05/26 06:58:30;;;;;;;20.10;6.03;;;16.00;93.70;;;;;;5070563;28;21034;-47
2023/05/26 07:00:58;;;;;;;16.30;5.23;;;16.20;93.60;;;;;;5052711;28;20538;-46
2023/05/26 07:03:26;;;;;;;19.23;5.23;;;16.00;93.40;;;;;;5052064;28;20467;-47
2023/05/26 07:05:55;;;;;;;19.43;6.47;;;16.30;93.40;;;;;;5052647;28;20461;-48
2023/05/26 07:08:23;;;;;;;17.30;5.50;;;16.40;93.20;;;;;;5052397;28;20455;-48
2023/05/26 07:10:51;;;;;;;15.17;5.60;;;16.20;93.00;;;;;;5052630;28;20450;-47
2023/05/26 07:13:17;;;;;;;24.40;6.10;;;16.60;93.20;;;;;;5052951;28;20475;-47
2023/05/26 07:15:44;;;;;;;28.27;6.00;;;16.60;93.00;;;;;;5051591;28;20417;-47
2023/05/26 07:18:13;;;;;;;18.97;6.50;;;16.70;92.80;;;;;;5052476;28;20859;-47
2023/05/26 07:20:40;;;;;;;18.23;5.30;;;16.70;92.60;;;;;;5052415;28;21019;-47
2023/05/26 07:23:08;;;;;;;18.10;5.70;;;16.50;92.30;;;;;;5052006;28;20478;-47
2023/05/26 07:25:36;;;;;;;23.83;6.53;;;16.40;92.40;;;;;;5069194;28;20445;-47
2023/05/26 07:28:03;;;;;;;25.33;6.27;;;16.80;92.60;;;;;;5052781;28;20442;-47
2023/05/26 07:30:30;;;;;;;23.47;5.80;;;16.40;92.30;;;;;;5055977;28;20561;-48
2023/05/26 07:33:03;;;;;;;13.63;5.77;;;16.50;92.30;;;;;;5055639;28;20486;-47
2023/05/26 07:35:30;;;;;;;27.70;5.90;;;16.50;92.20;;;;;;5055999;28;20526;-47
2023/05/26 07:37:57;;;;;;;16.40;6.30;;;16.60;92.10;;;;;;5055638;28;20446;-47
2023/05/26 07:40:23;;;;;;;17.23;5.40;;;16.50;91.90;;;;;;5073548;28;20465;-47
2023/05/26 07:42:51;;;;;;;15.00;5.63;;;16.40;92.00;;;;;;5073851;28;20578;-47
2023/05/26 07:45:18;;;;;;;15.70;5.23;;;16.90;91.90;;;;;;5074172;28;20423;-48
2023/05/26 07:47:45;;;;;;;20.20;6.17;;;16.80;91.50;;;;;;5073882;28;20439;-47
2023/05/26 07:50:13;;;;;;;19.73;6.10;;;16.60;91.30;;;;;;5073621;28;20930;-47
2023/05/26 07:52:40;;;;;;;20.23;5.93;;;16.90;91.40;;;;;;5039742;28;968838;-47
2023/05/26 07:55:07;;;;;;;19.50;5.77;;;17.00;91.20;;;;;;5074554;28;20409;-47
2023/05/26 07:57:34;;;;;;;16.70;5.80;;;17.10;91.10;;;;;;5074735;28;20478;-47
2023/05/26 08:00:03;;;;;;;18.70;5.80;;;17.00;90.70;;;;;;5074801;28;20434;-47
2023/05/26 08:02:39;;;;;;;23.60;5.93;;;17.10;90.70;;;;;;5074624;28;20474;-47
2023/05/26 08:05:06;;;;;;;18.90;6.03;;;17.00;90.30;;;;;;5074871;28;20955;-47
2023/05/26 08:07:33;;;;;;;20.97;5.37;;;17.10;90.20;;;;;;5074942;28;20435;-47
2023/05/26 08:10:00;;;;;;;21.87;6.00;;;17.20;90.20;;;;;;5074117;28;20548;-48
2023/05/26 08:12:27;;;;;;;19.60;5.60;;;17.40;90.10;;;;;;5074461;28;20854;-46
2023/05/26 08:14:54;;;;;;;16.80;6.03;;;17.30;90.00;;;;;;5074843;28;20447;-47
2023/05/26 08:17:22;;;;;;;21.57;6.00;;;17.30;90.00;;;;;;5075094;28;20440;-46
2023/05/26 08:19:49;;;;;;;19.67;5.40;;;17.40;90.10;;;;;;5074685;28;20812;-46
2023/05/26 08:22:16;;;;;;;20.43;6.00;;;17.30;89.80;;;;;;5074634;28;21026;-47
2023/05/26 08:24:42;;;;;;;16.43;5.53;;;16.90;87.60;;;;;;5073634;28;20454;-47
2023/05/26 08:27:09;;;;;;;12.43;4.83;;;17.00;85.80;;;;;;5074001;28;20491;-47
2023/05/26 08:29:36;;;;;;;22.50;6.00;;;17.10;85.10;;;;;;5073500;28;20428;-47
2023/05/26 08:32:02;;;;;;;21.13;6.20;;;17.20;85.80;;;;;;5073984;28;20541;-48
2023/05/26 08:34:30;;;;;;;24.07;5.93;;;17.30;85.00;;;;;;5074344;28;20988;-47
2023/05/26 08:36:57;;;;;;;20.47;5.70;;;17.10;84.80;;;;;;5074476;28;20450;-47
2023/05/26 08:39:24;;;;;;;13.50;4.40;;;17.00;84.40;;;;;;5073266;28;20444;-47
2023/05/26 08:41:55;;;;;;;18.27;5.70;;;17.00;84.70;;;;;;5073759;28;20471;-46
2023/05/26 08:44:23;;;;;;;20.77;5.20;;;17.10;85.70;;;;;;5074316;28;20426;-46
2023/05/26 08:46:55;;;;;;;18.03;5.43;;;17.20;85.60;;;;;;5074097;28;20427;-47
2023/05/26 08:49:22;;;;;;;16.57;5.10;;;17.10;85.20;;;;;;5073703;28;20481;-47
2023/05/26 08:51:58;;;;;;;17.73;5.30;;;17.10;85.60;;;;;;5073893;28;20409;-46
2023/05/26 08:54:24;;;;;;;22.37;5.90;;;17.10;86.50;;;;;;5073745;28;20442;-47
2023/05/26 08:56:51;;;;;;;16.93;5.33;;;17.20;85.90;;;;;;5056054;28;20781;-46
2023/05/26 08:59:19;;;;;;;22.60;5.40;;;17.00;85.40;;;;;;5073697;28;20535;-47
2023/05/26 09:01:45;;;;;;;20.90;5.17;;;17.10;84.90;;;;;;5074441;28;20484;-47
2023/05/26 09:04:12;;;;;;;16.43;5.47;;;17.00;85.70;;;;;;5074164;28;20455;-47
2023/05/26 09:06:42;;;;;;;17.07;4.97;;;17.30;85.30;;;;;;5073928;28;20447;-47
2023/05/26 09:09:11;;;;;;;18.10;5.40;;;17.50;85.40;;;;;;5073444;28;20466;-47
2023/05/26 09:11:41;;;;;;;20.20;5.43;;;17.10;85.00;;;;;;5074015;28;20489;-47
2023/05/26 09:14:08;;;;;;;22.07;5.20;;;17.30;84.40;;;;;;5073508;28;20453;-47
2023/05/26 09:16:35;;;;;;;12.50;5.10;;;17.40;82.00;;;;;;5074221;28;20535;-47
2023/05/26 09:19:02;;;;;;;15.77;4.70;;;17.50;81.90;;;;;;5074127;28;20494;-47
2023/05/26 09:21:30;;;;;;;20.67;5.70;;;17.40;82.40;;;;;;5054879;28;20464;-47
2023/05/26 09:23:59;;;;;;;17.10;4.80;;;17.80;82.70;;;;;;5073252;28;20552;-47
2023/05/26 09:26:29;;;;;;;12.67;4.60;;;17.60;82.70;;;;;;5074464;28;20433;-48
2023/05/26 09:28:57;;;;;;;12.37;4.70;;;17.20;81.10;;;;;;5072914;28;20486;-47
2023/05/26 09:31:24;;;;;;;18.37;4.83;;;17.70;82.00;;;;;;5073531;28;20445;-47
2023/05/26 09:33:51;;;;;;;18.27;4.83;;;17.80;80.90;;;;;;5073356;28;20444;-47
2023/05/26 09:36:18;;;;;;;16.40;5.60;;;17.90;79.60;;;;;;5072962;28;20436;-48
2023/05/26 09:38:44;;;;;;;19.23;5.00;;;17.70;79.10;;;;;;5072929;28;20492;-48
2023/05/26 09:41:11;;;;;;;12.07;4.50;;;17.90;78.30;;;;;;5073297;28;20442;-46
2023/05/26 09:43:39;;;;;;;12.27;4.87;;;17.80;78.10;;;;;;5073115;28;20495;-46
2023/05/26 09:46:20;;;;;;;20.53;7.80;;;18.10;77.00;;;;;;5073077;28;20428;-48
2023/05/26 09:48:50;;;;;;;15.03;5.23;;;17.90;76.40;;;;;;5072656;28;20436;-47
2023/05/26 09:51:19;;;;;;;17.10;4.57;;;18.10;76.10;;;;;;5072641;28;20888;-47
2023/05/26 09:53:46;;;;;;;11.77;4.30;;;17.90;76.10;;;;;;5072865;28;20495;-48
2023/05/26 09:56:15;;;;;;;15.87;5.07;;;18.10;76.70;;;;;;5072156;28;20433;-47
2023/05/26 09:58:46;;;;;;;15.20;5.73;;;17.50;75.90;;;;;;5072294;28;20432;-48
2023/05/26 10:01:14;;;;;;;14.40;5.30;;;18.10;75.70;;;;;;5054438;28;20452;-47
2023/05/26 10:03:40;;;;;;;19.17;5.90;;;17.90;75.40;;;;;;5072145;28;20495;-47
2023/05/26 10:06:07;;;;;;;27.30;6.00;;;17.90;75.00;;;;;;5053739;28;20531;-47
2023/05/26 10:08:39;;;;;;;16.73;5.30;;;18.20;75.00;;;;;;5071853;28;20452;-47
2023/05/26 10:11:07;;;;;;;17.40;5.20;;;18.20;74.80;;;;;;5072886;28;20933;-47
2023/05/26 10:13:35;;;;;;;11.40;4.10;;;18.20;73.50;;;;;;5072536;28;20511;-49
2023/05/26 10:16:04;;;;;;;14.70;4.87;;;18.20;73.30;;;;;;5074038;28;20440;-47
2023/05/26 10:18:31;;;;;;;16.27;6.00;;;18.30;73.40;;;;;;5071432;28;20432;-47
2023/05/26 10:21:04;;;;;;;18.77;5.67;;;18.20;73.30;;;;;;5072744;28;20773;-48
2023/05/26 10:23:36;;;;;;;12.70;4.83;;;18.40;73.20;;;;;;5072415;28;20507;-47
2023/05/26 10:26:07;;;;;;;14.70;4.37;;;18.30;72.50;;;;;;5072319;28;20432;-48
2023/05/26 10:28:39;;;;;;;12.30;4.47;;;17.90;72.80;;;;;;5072087;28;20445;-48
2023/05/26 10:31:07;;;;;;;16.77;5.50;;;18.30;72.90;;;;;;5072344;28;20440;-48
2023/05/26 10:33:41;;;;;;;12.33;5.10;;;18.30;72.90;;;;;;5053906;28;20480;-49
2023/05/26 10:36:09;;;;;;;10.60;3.53;;;18.40;73.40;;;;;;5072797;28;20447;-46
2023/05/26 10:38:44;;;;;;;16.80;4.60;;;18.20;70.40;;;;;;5070463;28;20464;-47
2023/05/26 10:41:12;;;;;;;15.00;5.00;;;18.20;70.00;;;;;;5072389;28;20951;-47
2023/05/26 10:43:42;;;;;;;15.77;4.83;;;18.10;70.50;;;;;;5072347;28;20493;-48
2023/05/26 10:46:10;;;;;;;12.97;4.37;;;18.40;71.00;;;;;;5072101;28;20990;-48
2023/05/26 10:48:39;;;;;;;10.40;4.60;;;18.30;71.40;;;;;;5054117;28;20957;-48
2023/05/26 10:51:17;;;;;;;12.40;4.57;;;18.30;72.00;;;;;;5071529;28;20446;-47
2023/05/26 10:53:45;;;;;;;14.27;4.20;;;18.20;65.80;;;;;;5072469;28;20651;-48
2023/05/26 10:58:58;;;;;;;16.57;6.67;;;18.50;67.60;;;;;;5028953;28;20448;-46
2023/05/26 11:01:30;;;;;;;14.50;4.40;;;18.30;69.60;;;;;;5010449;28;20435;-48
2023/05/26 11:03:58;;;;;;;16.77;5.10;;;18.40;70.00;;;;;;5069552;28;20503;-47
2023/05/26 11:06:36;;;;;;;15.37;5.27;;;18.50;70.90;;;;;;5072599;28;20428;-48
2023/05/26 11:09:08;;;;;;;14.40;4.03;;;18.40;71.00;;;;;;5072164;28;20479;-48
2023/05/26 11:11:38;;;;;;;16.60;5.03;;;18.50;70.50;;;;;;5054255;28;20950;-49
2023/05/26 11:14:06;;;;;;;10.70;4.40;;;18.20;70.10;;;;;;5071812;28;20547;-48
2023/05/26 11:16:36;;;;;;;12.10;3.53;;;18.20;67.60;;;;;;5071880;28;20778;-48
2023/05/26 11:19:04;;;;;;;10.90;3.87;;;18.60;65.70;;;;;;5071358;28;20445;-48
2023/05/26 11:21:33;;;;;;;8.20;3.80;;;18.40;62.20;;;;;;5072114;28;20433;-46
2023/05/26 11:27:48;;;;;;;10.53;4.53;;;18.70;57.20;;;;;;5068196;28;20479;-47
2023/05/26 11:30:15;;;;;;;10.57;3.90;;;18.80;57.60;;;;;;5071192;28;21086;-48
2023/05/26 11:32:46;;;;;;;11.83;3.17;;;18.30;56.60;;;;;;5071544;28;20819;-50
2023/05/26 11:35:23;;;;;;;9.50;3.17;;;18.50;55.90;;;;;;5071642;28;20922;-46
2023/05/26 11:37:50;;;;;;;9.90;3.30;;;18.40;54.50;;;;;;5071842;28;20808;-47
2023/05/26 11:40:17;;;;;;;9.67;2.97;;;18.50;54.70;;;;;;5071662;28;20832;-47
2023/05/26 11:42:44;;;;;;;10.00;4.70;;;18.50;54.90;;;;;;5071357;28;20893;-47
2023/05/26 11:45:11;;;;;;;8.77;3.33;;;18.70;55.00;;;;;;5071710;28;20935;-48
2023/05/26 11:47:39;;;;;;;8.93;3.40;;;18.50;54.90;;;;;;5071801;28;20476;-48
2023/05/26 11:50:09;;;;;;;10.70;3.00;;;18.80;54.10;;;;;;5069695;28;20452;-48
2023/05/26 11:52:41;;;;;;;8.70;3.13;;;18.60;53.90;;;;;;5072351;28;20456;-48
2023/05/26 11:55:10;;;;;;;15.43;4.03;;;18.80;53.30;;;;;;5091530;28;20527;-48
2023/05/26 11:57:38;;;;;;;7.77;3.03;;;18.60;53.20;;;;;;5091534;28;20843;-48
2023/05/26 12:00:09;;;;;;;9.37;3.37;;;18.90;52.90;;;;;;5079306;28;20452;-48
2023/05/26 12:02:36;;;;;;;6.90;3.07;;;18.90;53.10;;;;;;5053629;28;20556;-47
2023/05/26 12:05:19;;;;;;;9.20;3.40;;;18.80;52.60;;;;;;5071718;28;20876;-48
2023/05/26 12:07:46;;;;;;;12.40;3.50;;;18.60;51.70;;;;;;5054160;28;20549;-48
2023/05/26 12:10:13;;;;;;;6.50;2.87;;;18.70;51.80;;;;;;5071313;28;20454;-48
2023/05/26 12:12:49;;;;;;;11.17;4.03;;;18.90;51.40;;;;;;5073150;22;20986;-50
2023/05/26 12:15:19;;;;;;;10.10;2.53;;;18.70;51.00;;;;;;5052397;28;20508;-51
2023/05/26 12:17:46;;;;;;;7.40;3.60;;;19.10;52.20;;;;;;5052612;28;20536;-49
2023/05/26 12:20:15;;;;;;;16.33;3.80;;;19.10;50.70;;;;;;5053708;28;20430;-49
2023/05/26 12:22:43;;;;;;;8.43;2.83;;;19.10;51.10;;;;;;5054381;28;20804;-50
2023/05/26 12:25:10;;;;;;;12.07;3.00;;;19.10;51.30;;;;;;5054353;28;20437;-50
2023/05/26 12:27:37;;;;;;;6.67;2.80;;;18.80;49.60;;;;;;5053913;28;20445;-50
2023/05/26 12:30:20;;;;;;;9.20;3.70;;;18.90;48.70;;;;;;5053453;28;20442;-52
2023/05/26 12:32:47;;;;;;;10.93;3.10;;;19.00;49.30;;;;;;5052110;28;20452;-50
2023/05/26 12:35:15;;;;;;;8.75;3.40;;;18.80;50.00;;;;;;5068987;28;20447;-49
2023/05/26 12:37:43;;;;;;;11.40;3.10;;;19.00;50.10;;;;;;5053894;28;20201;-49
2023/05/26 12:40:11;;;;;;;12.63;3.53;;;19.20;49.80;;;;;;5052961;28;20781;-51
2023/05/26 12:42:38;;;;;;;12.20;3.13;;;18.80;49.80;;;;;;5053565;28;20474;-49
2023/05/26 12:45:06;;;;;;;9.43;2.80;;;19.20;49.80;;;;;;5053458;28;20441;-47
2023/05/26 12:47:34;;;;;;;12.50;3.70;;;19.40;48.60;;;;;;5070293;28;20465;-48
2023/05/26 12:50:01;;;;;;;7.07;3.20;;;19.30;48.30;;;;;;5071628;28;20433;-49
2023/05/26 12:52:27;;;;;;;11.33;3.80;;;19.40;49.00;;;;;;5072693;28;20957;-51